Daily Weather Observations for Burdell (Townsville)
For Monday 4th February 2019

This table is designed for ease of comparison to Bureau of Meteorology recorded weather data.

Station Details Name: BURDELL Lat: -19.24 Lon: 146.69 Height: 8.5 m
Date/Time
EST
Temp
°C
App
Temp
°C
Dew
Point
°C
Rel
Hum
%
Delta-T
°C
Wind Press
QNH
hPa
Press
MSL
hPa
Rain since
9am
mm
Dir  Spd
km/h
Gust
km/h
Spd
kts
Gust
kts
04/11:30pm 25.2 28.6 25.2 100 0.0 SE 19 23 10 13 999.2 999.2 19.6
04/11:00pm 25.2 29.0 25.2 100 0.0 SE 16 21 9 11 999.8 999.8 19.6
04/10:30pm 25.3 29.1 25.3 100 -0.0 SE 16 23 9 13 999.9 999.9 19.6
04/10:00pm 25.3 28.7 25.3 100 0.0 SE 20 34 11 18 999.8 999.8 19.6
04/09:30pm 25.4 29.8 25.4 100 0.0 ESE 14 23 8 13 1000.1 1000.1 19.1
04/09:00pm 25.4 28.7 25.4 100 0.0 SE 20 29 11 16 999.6 999.6 18.1
04/08:30pm 25.4 28.7 25.4 100 0.0 SE 19 26 10 14 999.5 999.5 18.1
04/08:00pm 25.3 28.8 25.3 100 0.0 SE 18 26 10 14 999.4 999.4 18.1
04/07:30pm 25.1 28.2 25.1 100 0.0 SE 21 34 11 18 998.7 998.7 18.1
04/07:00pm 25.2 27.6 25.2 100 0.0 SE 24 37 13 20 998.6 998.6 17.3
04/06:30pm 25.4 28.4 25.4 100 0.0 SE 20 32 11 17 998.5 998.5 17.0
04/06:00pm 25.6 30.2 25.6 100 0.0 SE 14 23 7 13 998.0 998.0 17.0
04/05:30pm 25.8 31.0 25.8 100 0.0 SE 12 18 6 10 997.9 997.9 16.8
04/05:00pm 25.9 31.0 25.7 99 0.1 SE 10 18 5 10 998.0 998.0 15.3
04/04:30pm 26.1 30.5 25.6 97 0.4 SE 14 23 8 13 998.0 998.0 14.8
04/04:00pm 25.9 29.6 25.9 100 0.0 E 17 23 9 13 998.0 998.0 14.8
04/03:30pm 25.6 30.3 25.6 100 0.0 ESE 14 18 7 10 998.2 998.2 14.8
04/03:00pm 25.8 29.7 25.8 100 0.0 ENE 21 29 11 16 998.6 998.6 14.5
04/02:30pm 25.8 30.5 25.8 100 0.0 SE 12 18 7 10 998.6 998.6 10.7
04/02:00pm 25.8 29.3 25.6 99 0.1 SE 19 26 10 14 999.2 999.2 10.4
04/01:30pm 25.4 29.0 25.4 100 0.0 SE 17 26 9 14 999.6 999.6 10.2
04/01:00pm 25.3 28.6 25.3 100 0.0 SE 19 26 10 14 999.8 999.8 9.7
04/12:30pm 25.3 30.0 25.2 100 0.1 SE 13 21 7 11 1000.4 1000.4 7.9
04/12:00pm 25.3 28.8 25.1 99 0.1 SE 17 23 9 13 1000.8 1000.8 5.6
04/11:30am 25.4 29.3 25.2 99 0.1 ESE 19 29 10 16 1001.3 1001.3 4.6
04/11:00am 25.8 30.1 25.5 98 0.2 ESE 15 21 8 11 1001.6 1001.6 2.3
04/10:30am 26.4 31.5 25.4 95 0.7 ESE 8 10 4 6 1001.7 1001.7 0.3
04/10:00am 26.8 31.7 25.7 94 0.8 ESE 11 16 6 9 1001.6 1001.6 0.0
04/09:30am 26.4 30.5 25.1 93 1.0 SE 20 29 11 16 1001.3 1001.3 0.0
04/09:00am 26.1 30.8 25.4 96 0.5 SE 12 18 7 10 1001.3 1001.3 0.0
04/08:30am 25.7 31.0 25.4 99 0.2 SE 15 18 8 10 1001.2 1001.2 202.7
04/08:00am 24.9 28.9 24.8 100 0.1 SE 18 26 10 14 1001.1 1001.1 202.7
04/07:30am 24.2 27.4 24.2 100 -0.0 SE 16 23 9 13 1000.8 1000.8 202.7
04/07:00am 23.9 26.1 23.9 100 0.0 SE 24 32 13 17 1000.6 1000.6 202.7
04/06:30am 23.8 25.8 23.8 100 0.0 SE 23 39 12 21 1000.5 1000.5 202.0
04/06:00am 23.7 26.4 23.7 100 -0.0 SE 23 32 12 17 1000.3 1000.3 201.7
04/05:30am 23.6 25.2 23.6 100 0.0 SE 25 34 14 18 1000.0 1000.0 201.7
04/05:00am 23.6 24.8 23.6 100 0.0 SE 29 37 15 20 999.8 999.8 201.2
04/04:30am 23.6 26.1 23.6 100 0.0 SE 19 26 10 14 999.9 999.9 199.4
04/04:00am 23.6 25.0 23.4 99 0.1 SE 23 34 12 18 999.6 999.6 198.7
04/03:30am 23.8 26.6 23.8 100 -0.0 SE 19 34 10 18 999.5 999.5 198.1
04/03:00am 23.9 25.4 23.9 100 0.0 SE 24 34 13 18 999.5 999.5 197.9
04/02:30am 23.9 25.0 23.9 100 0.0 SE 31 42 17 23 999.3 999.3 196.9
04/02:00am 23.8 24.4 23.8 100 -0.0 SE 27 34 14 18 1000.0 1000.0 196.1
04/01:30am 23.5 23.4 23.5 100 0.0 SE 31 45 17 24 1000.6 1000.6 195.9
04/01:00am 23.6 25.9 23.6 100 0.0 SE 20 29 11 16 1001.3 1001.3 194.8
04/12:30am 23.6 24.2 23.6 100 0.0 SE 31 37 17 20 1001.2 1001.2 190.3
04/12:00am 23.4 24.4 23.4 100 0.0 SE 28 37 15 20 1001.7 1001.7 184.4
 


NOTE: The apparent temperature specified in the table above is calculated using both the Heat Index and Steadman method. This differs to the Bureau of Meteorology's calculation which uses the Steadman method alone.